sensor_id;sensor_type;location;lat;lon;timestamp;temperature;humidity
46364;DHT22;32071;49.036;9.344;2022-10-31T00:00:41;10.10;99.90
46364;DHT22;32071;49.036;9.344;2022-10-31T00:03:06;10.00;99.90
46364;DHT22;32071;49.036;9.344;2022-10-31T00:05:32;10.00;99.90
46364;DHT22;32071;49.036;9.344;2022-10-31T00:07:57;10.00;99.90
46364;DHT22;32071;49.036;9.344;2022-10-31T00:10:23;10.00;99.90
46364;DHT22;32071;49.036;9.344;2022-10-31T00:12:48;10.00;99.90
46364;DHT22;32071;49.036;9.344;2022-10-31T00:15:14;10.00;99.90
46364;DHT22;32071;49.036;9.344;2022-10-31T00:17:40;10.00;99.90
46364;DHT22;32071;49.036;9.344;2022-10-31T00:20:06;10.00;99.90
46364;DHT22;32071;49.036;9.344;2022-10-31T00:22:31;9.90;99.90
46364;DHT22;32071;49.036;9.344;2022-10-31T00:24:57;9.90;99.90
46364;DHT22;32071;49.036;9.344;2022-10-31T00:27:22;9.90;99.90
46364;DHT22;32071;49.036;9.344;2022-10-31T00:29:48;9.90;99.90
46364;DHT22;32071;49.036;9.344;2022-10-31T00:32:13;9.90;99.90
46364;DHT22;32071;49.036;9.344;2022-10-31T00:34:39;9.80;99.90
46364;DHT22;32071;49.036;9.344;2022-10-31T00:37:04;9.80;99.90
46364;DHT22;32071;49.036;9.344;2022-10-31T00:39:30;9.80;99.90
46364;DHT22;32071;49.036;9.344;2022-10-31T00:41:56;9.80;99.90
46364;DHT22;32071;49.036;9.344;2022-10-31T00:44:21;9.80;99.90
46364;DHT22;32071;49.036;9.344;2022-10-31T00:46:47;9.80;99.90
46364;DHT22;32071;49.036;9.344;2022-10-31T00:49:12;9.70;99.90
46364;DHT22;32071;49.036;9.344;2022-10-31T00:51:38;9.70;99.90
46364;DHT22;32071;49.036;9.344;2022-10-31T00:54:04;9.70;99.90
46364;DHT22;32071;49.036;9.344;2022-10-31T00:56:29;9.70;99.90
46364;DHT22;32071;49.036;9.344;2022-10-31T00:58:55;9.70;99.90
46364;DHT22;32071;49.036;9.344;2022-10-31T01:01:20;9.70;99.90
46364;DHT22;32071;49.036;9.344;2022-10-31T01:03:46;9.60;99.90
46364;DHT22;32071;49.036;9.344;2022-10-31T01:06:13;9.60;99.90
46364;DHT22;32071;49.036;9.344;2022-10-31T01:08:39;9.60;99.90
46364;DHT22;32071;49.036;9.344;2022-10-31T01:11:17;9.60;99.90
46364;DHT22;32071;49.036;9.344;2022-10-31T01:13:43;9.50;99.90
46364;DHT22;32071;49.036;9.344;2022-10-31T01:16:12;9.50;99.90
46364;DHT22;32071;49.036;9.344;2022-10-31T01:18:38;9.50;99.90
46364;DHT22;32071;49.036;9.344;2022-10-31T01:21:13;9.50;99.90
46364;DHT22;32071;49.036;9.344;2022-10-31T01:23:39;9.60;99.90
46364;DHT22;32071;49.036;9.344;2022-10-31T01:28:34;9.50;99.90
46364;DHT22;32071;49.036;9.344;2022-10-31T01:31:02;9.50;99.90
46364;DHT22;32071;49.036;9.344;2022-10-31T01:33:27;9.50;99.90
46364;DHT22;32071;49.036;9.344;2022-10-31T01:35:53;9.50;99.90
46364;DHT22;32071;49.036;9.344;2022-10-31T01:38:18;9.40;99.90
46364;DHT22;32071;49.036;9.344;2022-10-31T01:40:44;9.40;99.90
46364;DHT22;32071;49.036;9.344;2022-10-31T01:43:13;9.40;99.90
46364;DHT22;32071;49.036;9.344;2022-10-31T01:45:39;9.40;99.90
46364;DHT22;32071;49.036;9.344;2022-10-31T01:48:05;9.40;99.90
46364;DHT22;32071;49.036;9.344;2022-10-31T01:50:35;9.40;99.90
46364;DHT22;32071;49.036;9.344;2022-10-31T01:53:05;9.40;99.90
46364;DHT22;32071;49.036;9.344;2022-10-31T01:55:35;9.40;99.90
46364;DHT22;32071;49.036;9.344;2022-10-31T01:58:08;9.40;99.90
46364;DHT22;32071;49.036;9.344;2022-10-31T02:00:35;9.40;99.90
46364;DHT22;32071;49.036;9.344;2022-10-31T02:03:01;9.30;99.90
46364;DHT22;32071;49.036;9.344;2022-10-31T02:05:28;9.30;99.90
46364;DHT22;32071;49.036;9.344;2022-10-31T02:10:40;9.30;99.90
46364;DHT22;32071;49.036;9.344;2022-10-31T02:13:08;9.30;99.90
46364;DHT22;32071;49.036;9.344;2022-10-31T02:15:35;9.30;99.90
46364;DHT22;32071;49.036;9.344;2022-10-31T02:18:01;9.20;99.90
46364;DHT22;32071;49.036;9.344;2022-10-31T02:20:33;9.20;99.90
46364;DHT22;32071;49.036;9.344;2022-10-31T02:26:25;9.20;99.90
46364;DHT22;32071;49.036;9.344;2022-10-31T02:29:11;9.20;99.90
46364;DHT22;32071;49.036;9.344;2022-10-31T02:31:54;9.20;99.90
46364;DHT22;32071;49.036;9.344;2022-10-31T02:37:25;9.20;99.90
46364;DHT22;32071;49.036;9.344;2022-10-31T02:42:51;9.20;99.90
46364;DHT22;32071;49.036;9.344;2022-10-31T02:45:29;9.10;99.90
46364;DHT22;32071;49.036;9.344;2022-10-31T02:48:00;9.10;99.90
46364;DHT22;32071;49.036;9.344;2022-10-31T02:50:31;9.10;99.90
46364;DHT22;32071;49.036;9.344;2022-10-31T02:52:58;9.10;99.90
46364;DHT22;32071;49.036;9.344;2022-10-31T02:57:56;9.10;99.90
46364;DHT22;32071;49.036;9.344;2022-10-31T03:00:22;9.10;99.90
46364;DHT22;32071;49.036;9.344;2022-10-31T03:03:02;9.00;99.90
46364;DHT22;32071;49.036;9.344;2022-10-31T03:05:59;9.00;99.90
46364;DHT22;32071;49.036;9.344;2022-10-31T03:08:50;9.00;99.90
46364;DHT22;32071;49.036;9.344;2022-10-31T03:11:23;8.90;99.90
46364;DHT22;32071;49.036;9.344;2022-10-31T03:13:54;8.90;99.90
46364;DHT22;32071;49.036;9.344;2022-10-31T03:21:21;8.90;99.90
46364;DHT22;32071;49.036;9.344;2022-10-31T03:23:49;8.90;99.90
46364;DHT22;32071;49.036;9.344;2022-10-31T03:26:16;8.90;99.90
46364;DHT22;32071;49.036;9.344;2022-10-31T03:28:52;8.80;99.90
46364;DHT22;32071;49.036;9.344;2022-10-31T03:31:25;8.80;99.90
46364;DHT22;32071;49.036;9.344;2022-10-31T03:33:52;8.80;99.90
46364;DHT22;32071;49.036;9.344;2022-10-31T03:36:19;8.80;99.90
46364;DHT22;32071;49.036;9.344;2022-10-31T03:38:46;8.80;99.90
46364;DHT22;32071;49.036;9.344;2022-10-31T03:41:17;8.70;99.90
46364;DHT22;32071;49.036;9.344;2022-10-31T03:43:52;8.70;99.90
46364;DHT22;32071;49.036;9.344;2022-10-31T03:46:19;8.70;99.90
46364;DHT22;32071;49.036;9.344;2022-10-31T03:48:45;8.70;99.90
46364;DHT22;32071;49.036;9.344;2022-10-31T03:51:16;8.70;99.90
46364;DHT22;32071;49.036;9.344;2022-10-31T03:54:04;8.60;99.90
46364;DHT22;32071;49.036;9.344;2022-10-31T03:56:36;8.60;99.90
46364;DHT22;32071;49.036;9.344;2022-10-31T03:59:21;8.60;99.90
46364;DHT22;32071;49.036;9.344;2022-10-31T04:01:51;8.60;99.90
46364;DHT22;32071;49.036;9.344;2022-10-31T04:04:19;8.60;99.90
46364;DHT22;32071;49.036;9.344;2022-10-31T04:06:46;8.50;99.90
46364;DHT22;32071;49.036;9.344;2022-10-31T04:09:13;8.50;99.90
46364;DHT22;32071;49.036;9.344;2022-10-31T04:11:48;8.50;99.90
46364;DHT22;32071;49.036;9.344;2022-10-31T04:14:15;8.50;99.90
46364;DHT22;32071;49.036;9.344;2022-10-31T04:16:43;8.50;99.90
46364;DHT22;32071;49.036;9.344;2022-10-31T04:19:10;8.50;99.90
46364;DHT22;32071;49.036;9.344;2022-10-31T04:21:35;8.50;99.90
46364;DHT22;32071;49.036;9.344;2022-10-31T04:24:01;8.50;99.90
46364;DHT22;32071;49.036;9.344;2022-10-31T04:26:27;8.50;99.90
46364;DHT22;32071;49.036;9.344;2022-10-31T04:28:52;8.50;99.90
46364;DHT22;32071;49.036;9.344;2022-10-31T04:31:18;8.50;99.90
46364;DHT22;32071;49.036;9.344;2022-10-31T04:33:43;8.50;99.90
46364;DHT22;32071;49.036;9.344;2022-10-31T04:36:09;8.50;99.90
46364;DHT22;32071;49.036;9.344;2022-10-31T04:38:35;8.50;99.90
46364;DHT22;32071;49.036;9.344;2022-10-31T04:41:01;8.50;99.90
46364;DHT22;32071;49.036;9.344;2022-10-31T04:43:26;8.50;99.90
46364;DHT22;32071;49.036;9.344;2022-10-31T04:45:52;8.50;99.90
46364;DHT22;32071;49.036;9.344;2022-10-31T04:48:17;8.50;99.90
46364;DHT22;32071;49.036;9.344;2022-10-31T04:50:43;8.50;99.90
46364;DHT22;32071;49.036;9.344;2022-10-31T04:53:08;8.50;99.90
46364;DHT22;32071;49.036;9.344;2022-10-31T04:55:35;8.40;99.90
46364;DHT22;32071;49.036;9.344;2022-10-31T04:58:01;8.40;99.90
46364;DHT22;32071;49.036;9.344;2022-10-31T05:00:26;8.40;99.90
46364;DHT22;32071;49.036;9.344;2022-10-31T05:02:57;8.40;99.90
46364;DHT22;32071;49.036;9.344;2022-10-31T05:05:25;8.30;99.90
46364;DHT22;32071;49.036;9.344;2022-10-31T05:07:53;8.30;99.90
46364;DHT22;32071;49.036;9.344;2022-10-31T05:10:21;8.30;99.90
46364;DHT22;32071;49.036;9.344;2022-10-31T05:12:55;8.30;99.90
46364;DHT22;32071;49.036;9.344;2022-10-31T05:15:22;8.20;99.90
46364;DHT22;32071;49.036;9.344;2022-10-31T05:17:49;8.20;99.90
46364;DHT22;32071;49.036;9.344;2022-10-31T05:20:16;8.20;99.90
46364;DHT22;32071;49.036;9.344;2022-10-31T05:22:52;8.20;99.90
46364;DHT22;32071;49.036;9.344;2022-10-31T05:25:20;8.20;99.90
46364;DHT22;32071;49.036;9.344;2022-10-31T05:27:47;8.10;99.90
46364;DHT22;32071;49.036;9.344;2022-10-31T05:30:18;8.10;99.90
46364;DHT22;32071;49.036;9.344;2022-10-31T05:32:46;8.10;99.90
46364;DHT22;32071;49.036;9.344;2022-10-31T05:35:14;8.10;99.90
46364;DHT22;32071;49.036;9.344;2022-10-31T05:37:40;8.10;99.90
46364;DHT22;32071;49.036;9.344;2022-10-31T05:40:09;8.10;99.90
46364;DHT22;32071;49.036;9.344;2022-10-31T05:42:35;8.00;99.90
46364;DHT22;32071;49.036;9.344;2022-10-31T05:45:00;8.00;99.90
46364;DHT22;32071;49.036;9.344;2022-10-31T05:47:26;8.00;99.90
46364;DHT22;32071;49.036;9.344;2022-10-31T05:49:52;8.00;99.90
46364;DHT22;32071;49.036;9.344;2022-10-31T05:52:17;8.00;99.90
46364;DHT22;32071;49.036;9.344;2022-10-31T05:54:43;8.00;99.90
46364;DHT22;32071;49.036;9.344;2022-10-31T05:57:09;8.00;99.90
46364;DHT22;32071;49.036;9.344;2022-10-31T05:59:34;7.90;99.90
46364;DHT22;32071;49.036;9.344;2022-10-31T06:02:00;8.00;99.90
46364;DHT22;32071;49.036;9.344;2022-10-31T06:04:26;8.00;99.90
46364;DHT22;32071;49.036;9.344;2022-10-31T06:06:51;8.00;99.90
46364;DHT22;32071;49.036;9.344;2022-10-31T06:09:17;7.90;99.90
46364;DHT22;32071;49.036;9.344;2022-10-31T06:11:43;7.90;99.90
46364;DHT22;32071;49.036;9.344;2022-10-31T06:14:08;7.90;99.90
46364;DHT22;32071;49.036;9.344;2022-10-31T06:16:34;7.90;99.90
46364;DHT22;32071;49.036;9.344;2022-10-31T06:18:59;7.90;99.90
46364;DHT22;32071;49.036;9.344;2022-10-31T06:21:25;7.90;99.90
46364;DHT22;32071;49.036;9.344;2022-10-31T06:23:50;7.90;99.90
46364;DHT22;32071;49.036;9.344;2022-10-31T06:26:16;8.00;99.90
46364;DHT22;32071;49.036;9.344;2022-10-31T06:28:42;8.00;99.90
46364;DHT22;32071;49.036;9.344;2022-10-31T06:31:07;7.90;99.90
46364;DHT22;32071;49.036;9.344;2022-10-31T06:33:33;7.90;99.90
46364;DHT22;32071;49.036;9.344;2022-10-31T06:35:59;7.90;99.90
46364;DHT22;32071;49.036;9.344;2022-10-31T06:38:26;7.90;99.90
46364;DHT22;32071;49.036;9.344;2022-10-31T06:40:53;8.00;99.90
46364;DHT22;32071;49.036;9.344;2022-10-31T06:43:19;8.00;99.90
46364;DHT22;32071;49.036;9.344;2022-10-31T06:45:45;8.00;99.90
46364;DHT22;32071;49.036;9.344;2022-10-31T06:48:10;8.10;99.90
46364;DHT22;32071;49.036;9.344;2022-10-31T06:50:36;8.10;99.90
46364;DHT22;32071;49.036;9.344;2022-10-31T06:53:01;8.10;99.90
46364;DHT22;32071;49.036;9.344;2022-10-31T06:55:27;8.20;99.90
46364;DHT22;32071;49.036;9.344;2022-10-31T06:57:55;8.20;99.90
46364;DHT22;32071;49.036;9.344;2022-10-31T07:00:21;8.20;99.90
46364;DHT22;32071;49.036;9.344;2022-10-31T07:03:13;8.30;99.90
46364;DHT22;32071;49.036;9.344;2022-10-31T07:05:41;8.40;99.90
46364;DHT22;32071;49.036;9.344;2022-10-31T07:08:08;8.40;99.90
46364;DHT22;32071;49.036;9.344;2022-10-31T07:10:36;8.50;99.90
46364;DHT22;32071;49.036;9.344;2022-10-31T07:13:04;8.60;99.90
46364;DHT22;32071;49.036;9.344;2022-10-31T07:15:33;8.70;99.90
46364;DHT22;32071;49.036;9.344;2022-10-31T07:18:00;8.80;99.90
46364;DHT22;32071;49.036;9.344;2022-10-31T07:20:27;8.80;99.90
46364;DHT22;32071;49.036;9.344;2022-10-31T07:22:52;8.80;99.90
46364;DHT22;32071;49.036;9.344;2022-10-31T07:25:18;8.80;99.90
46364;DHT22;32071;49.036;9.344;2022-10-31T07:27:44;8.90;99.90
46364;DHT22;32071;49.036;9.344;2022-10-31T07:30:11;9.00;99.90
46364;DHT22;32071;49.036;9.344;2022-10-31T07:32:41;9.10;99.90
46364;DHT22;32071;49.036;9.344;2022-10-31T07:35:08;9.20;99.90
46364;DHT22;32071;49.036;9.344;2022-10-31T07:37:34;9.20;99.90
46364;DHT22;32071;49.036;9.344;2022-10-31T07:39:59;9.30;99.90
46364;DHT22;32071;49.036;9.344;2022-10-31T07:42:25;9.30;99.90
46364;DHT22;32071;49.036;9.344;2022-10-31T07:44:50;9.30;99.90
46364;DHT22;32071;49.036;9.344;2022-10-31T07:47:16;9.30;99.90
46364;DHT22;32071;49.036;9.344;2022-10-31T07:49:42;9.30;99.90
46364;DHT22;32071;49.036;9.344;2022-10-31T07:52:07;9.40;99.90
46364;DHT22;32071;49.036;9.344;2022-10-31T07:54:33;9.40;99.90
46364;DHT22;32071;49.036;9.344;2022-10-31T07:56:58;9.50;99.90
46364;DHT22;32071;49.036;9.344;2022-10-31T07:59:24;9.50;99.90
46364;DHT22;32071;49.036;9.344;2022-10-31T08:01:51;9.60;99.90
46364;DHT22;32071;49.036;9.344;2022-10-31T08:04:16;9.70;99.90
46364;DHT22;32071;49.036;9.344;2022-10-31T08:06:42;9.80;99.90
46364;DHT22;32071;49.036;9.344;2022-10-31T08:09:07;9.90;99.90
46364;DHT22;32071;49.036;9.344;2022-10-31T08:11:33;10.00;99.90
46364;DHT22;32071;49.036;9.344;2022-10-31T08:13:58;10.10;99.90
46364;DHT22;32071;49.036;9.344;2022-10-31T08:16:24;10.20;99.90
46364;DHT22;32071;49.036;9.344;2022-10-31T08:18:50;10.30;99.90
46364;DHT22;32071;49.036;9.344;2022-10-31T08:21:15;10.40;99.90
46364;DHT22;32071;49.036;9.344;2022-10-31T08:23:41;10.50;99.90
46364;DHT22;32071;49.036;9.344;2022-10-31T08:26:06;10.60;99.90
46364;DHT22;32071;49.036;9.344;2022-10-31T08:28:32;10.70;99.90
46364;DHT22;32071;49.036;9.344;2022-10-31T08:30:58;10.80;99.90
46364;DHT22;32071;49.036;9.344;2022-10-31T08:33:24;10.90;99.90
46364;DHT22;32071;49.036;9.344;2022-10-31T08:35:50;11.10;99.90
46364;DHT22;32071;49.036;9.344;2022-10-31T08:38:16;11.20;99.90
46364;DHT22;32071;49.036;9.344;2022-10-31T08:40:41;11.30;99.90
46364;DHT22;32071;49.036;9.344;2022-10-31T08:43:17;11.40;99.90
46364;DHT22;32071;49.036;9.344;2022-10-31T08:45:44;11.50;99.90
46364;DHT22;32071;49.036;9.344;2022-10-31T08:48:14;11.70;99.90
46364;DHT22;32071;49.036;9.344;2022-10-31T08:50:40;11.80;99.90
46364;DHT22;32071;49.036;9.344;2022-10-31T08:53:09;11.80;99.90
46364;DHT22;32071;49.036;9.344;2022-10-31T08:55:36;12.00;99.90
46364;DHT22;32071;49.036;9.344;2022-10-31T08:58:05;12.00;99.90
46364;DHT22;32071;49.036;9.344;2022-10-31T09:00:32;12.10;99.90
46364;DHT22;32071;49.036;9.344;2022-10-31T09:02:58;12.20;99.90
46364;DHT22;32071;49.036;9.344;2022-10-31T09:05:24;12.30;99.90
46364;DHT22;32071;49.036;9.344;2022-10-31T09:07:50;12.50;99.90
46364;DHT22;32071;49.036;9.344;2022-10-31T09:10:16;12.50;99.90
46364;DHT22;32071;49.036;9.344;2022-10-31T09:12:41;12.60;99.90
46364;DHT22;32071;49.036;9.344;2022-10-31T09:15:07;12.70;99.90
46364;DHT22;32071;49.036;9.344;2022-10-31T09:17:33;12.70;99.90
46364;DHT22;32071;49.036;9.344;2022-10-31T09:19:59;12.80;99.90
46364;DHT22;32071;49.036;9.344;2022-10-31T09:22:24;12.90;99.90
46364;DHT22;32071;49.036;9.344;2022-10-31T09:24:50;13.00;99.90
46364;DHT22;32071;49.036;9.344;2022-10-31T09:27:15;13.10;99.90
46364;DHT22;32071;49.036;9.344;2022-10-31T09:29:41;13.10;99.90
46364;DHT22;32071;49.036;9.344;2022-10-31T09:32:07;13.20;99.90
46364;DHT22;32071;49.036;9.344;2022-10-31T09:34:32;13.30;99.90
46364;DHT22;32071;49.036;9.344;2022-10-31T09:36:58;13.40;99.90
46364;DHT22;32071;49.036;9.344;2022-10-31T09:39:23;13.50;99.90
46364;DHT22;32071;49.036;9.344;2022-10-31T09:42:06;13.70;99.90
46364;DHT22;32071;49.036;9.344;2022-10-31T09:49:52;14.00;99.90
46364;DHT22;32071;49.036;9.344;2022-10-31T09:52:37;14.00;99.90
46364;DHT22;32071;49.036;9.344;2022-10-31T09:55:21;14.20;99.90
46364;DHT22;32071;49.036;9.344;2022-10-31T09:57:49;14.30;99.90
46364;DHT22;32071;49.036;9.344;2022-10-31T10:00:18;14.40;99.90
46364;DHT22;32071;49.036;9.344;2022-10-31T10:03:05;14.40;99.90
46364;DHT22;32071;49.036;9.344;2022-10-31T10:05:46;14.50;99.90
46364;DHT22;32071;49.036;9.344;2022-10-31T10:08:25;14.60;99.90
46364;DHT22;32071;49.036;9.344;2022-10-31T10:16:26;14.70;99.90
46364;DHT22;32071;49.036;9.344;2022-10-31T10:19:17;14.70;99.90
46364;DHT22;32071;49.036;9.344;2022-10-31T10:22:10;14.80;99.90
46364;DHT22;32071;49.036;9.344;2022-10-31T10:27:52;15.00;99.90
46364;DHT22;32071;49.036;9.344;2022-10-31T10:30:22;15.10;99.90
46364;DHT22;32071;49.036;9.344;2022-10-31T10:32:54;15.10;99.90
46364;DHT22;32071;49.036;9.344;2022-10-31T10:35:29;15.20;99.90
46364;DHT22;32071;49.036;9.344;2022-10-31T10:38:13;15.30;99.90
46364;DHT22;32071;49.036;9.344;2022-10-31T10:40:40;15.30;99.90
46364;DHT22;32071;49.036;9.344;2022-10-31T10:43:20;15.50;99.90
46364;DHT22;32071;49.036;9.344;2022-10-31T10:49:23;15.80;99.90
46364;DHT22;32071;49.036;9.344;2022-10-31T10:52:12;16.00;99.90
46364;DHT22;32071;49.036;9.344;2022-10-31T11:00:21;16.40;99.90
46364;DHT22;32071;49.036;9.344;2022-10-31T11:02:47;16.60;99.90
46364;DHT22;32071;49.036;9.344;2022-10-31T11:08:02;16.80;99.90
46364;DHT22;32071;49.036;9.344;2022-10-31T11:10:28;16.90;99.90
46364;DHT22;32071;49.036;9.344;2022-10-31T11:13:17;17.00;99.90
46364;DHT22;32071;49.036;9.344;2022-10-31T11:16:12;17.10;99.90
46364;DHT22;32071;49.036;9.344;2022-10-31T11:18:44;17.10;99.90
46364;DHT22;32071;49.036;9.344;2022-10-31T11:21:25;17.10;99.90
46364;DHT22;32071;49.036;9.344;2022-10-31T11:24:16;17.10;99.90
46364;DHT22;32071;49.036;9.344;2022-10-31T11:26:44;17.10;99.90
46364;DHT22;32071;49.036;9.344;2022-10-31T11:29:30;17.10;99.90
46364;DHT22;32071;49.036;9.344;2022-10-31T11:31:56;17.30;99.90
46364;DHT22;32071;49.036;9.344;2022-10-31T11:34:38;17.30;99.90
46364;DHT22;32071;49.036;9.344;2022-10-31T11:37:16;17.30;99.90
46364;DHT22;32071;49.036;9.344;2022-10-31T11:39:50;17.40;99.90
46364;DHT22;32071;49.036;9.344;2022-10-31T11:42:21;17.50;99.90
46364;DHT22;32071;49.036;9.344;2022-10-31T11:44:50;17.50;99.90
46364;DHT22;32071;49.036;9.344;2022-10-31T11:47:17;17.70;99.90
46364;DHT22;32071;49.036;9.344;2022-10-31T11:49:47;17.70;99.90
46364;DHT22;32071;49.036;9.344;2022-10-31T11:52:19;17.70;99.90
46364;DHT22;32071;49.036;9.344;2022-10-31T11:57:31;17.80;99.90
46364;DHT22;32071;49.036;9.344;2022-10-31T11:59:59;17.90;99.90
46364;DHT22;32071;49.036;9.344;2022-10-31T12:02:25;18.10;99.90
46364;DHT22;32071;49.036;9.344;2022-10-31T12:05:07;18.10;99.90
46364;DHT22;32071;49.036;9.344;2022-10-31T12:07:36;18.10;99.90
46364;DHT22;32071;49.036;9.344;2022-10-31T12:10:10;18.10;99.90
46364;DHT22;32071;49.036;9.344;2022-10-31T12:15:31;18.10;99.90
46364;DHT22;32071;49.036;9.344;2022-10-31T12:18:30;18.00;99.90
46364;DHT22;32071;49.036;9.344;2022-10-31T12:39:24;18.20;99.90
46364;DHT22;32071;49.036;9.344;2022-10-31T13:01:07;18.80;99.90
46364;DHT22;32071;49.036;9.344;2022-10-31T13:03:42;18.80;99.90
46364;DHT22;32071;49.036;9.344;2022-10-31T13:06:14;18.80;99.90
46364;DHT22;32071;49.036;9.344;2022-10-31T13:08:53;18.50;99.90
46364;DHT22;32071;49.036;9.344;2022-10-31T13:11:27;18.40;99.90
46364;DHT22;32071;49.036;9.344;2022-10-31T13:16:25;18.30;99.90
46364;DHT22;32071;49.036;9.344;2022-10-31T13:19:16;18.20;99.90
46364;DHT22;32071;49.036;9.344;2022-10-31T13:24:13;18.20;99.90
46364;DHT22;32071;49.036;9.344;2022-10-31T13:26:47;18.20;99.90
46364;DHT22;32071;49.036;9.344;2022-10-31T13:31:44;18.20;99.90
46364;DHT22;32071;49.036;9.344;2022-10-31T13:34:44;18.20;99.90
46364;DHT22;32071;49.036;9.344;2022-10-31T13:37:35;18.10;99.90
46364;DHT22;32071;49.036;9.344;2022-10-31T13:43:20;18.00;99.90
46364;DHT22;32071;49.036;9.344;2022-10-31T13:45:53;18.00;99.90
46364;DHT22;32071;49.036;9.344;2022-10-31T13:48:34;18.00;99.90
46364;DHT22;32071;49.036;9.344;2022-10-31T13:51:09;17.90;99.90
46364;DHT22;32071;49.036;9.344;2022-10-31T13:56:15;17.90;99.90
46364;DHT22;32071;49.036;9.344;2022-10-31T14:01:34;18.30;99.90
46364;DHT22;32071;49.036;9.344;2022-10-31T14:04:27;18.40;99.90
46364;DHT22;32071;49.036;9.344;2022-10-31T14:09:54;18.40;99.90
46364;DHT22;32071;49.036;9.344;2022-10-31T14:14:59;18.80;99.90
46364;DHT22;32071;49.036;9.344;2022-10-31T14:17:28;18.70;99.90
46364;DHT22;32071;49.036;9.344;2022-10-31T14:22:47;18.60;99.90
46364;DHT22;32071;49.036;9.344;2022-10-31T14:25:29;18.50;99.90
46364;DHT22;32071;49.036;9.344;2022-10-31T14:27:56;18.40;99.90
46364;DHT22;32071;49.036;9.344;2022-10-31T14:30:23;18.30;99.90
46364;DHT22;32071;49.036;9.344;2022-10-31T14:32:57;18.20;99.90
46364;DHT22;32071;49.036;9.344;2022-10-31T14:35:29;18.10;99.90
46364;DHT22;32071;49.036;9.344;2022-10-31T14:38:11;18.10;99.90
46364;DHT22;32071;49.036;9.344;2022-10-31T14:41:08;18.00;99.90
46364;DHT22;32071;49.036;9.344;2022-10-31T14:46:44;17.70;99.90
46364;DHT22;32071;49.036;9.344;2022-10-31T14:49:37;17.60;99.90
46364;DHT22;32071;49.036;9.344;2022-10-31T14:52:08;17.50;99.90
46364;DHT22;32071;49.036;9.344;2022-10-31T14:54:43;17.40;99.90
46364;DHT22;32071;49.036;9.344;2022-10-31T14:57:32;17.40;99.90
46364;DHT22;32071;49.036;9.344;2022-10-31T15:00:03;17.30;99.90
46364;DHT22;32071;49.036;9.344;2022-10-31T15:05:22;17.10;99.90
46364;DHT22;32071;49.036;9.344;2022-10-31T15:07:52;17.00;99.90
46364;DHT22;32071;49.036;9.344;2022-10-31T15:10:25;16.90;99.90
46364;DHT22;32071;49.036;9.344;2022-10-31T15:12:51;16.80;99.90
46364;DHT22;32071;49.036;9.344;2022-10-31T15:15:20;16.70;99.90
46364;DHT22;32071;49.036;9.344;2022-10-31T15:17:55;16.70;99.90
46364;DHT22;32071;49.036;9.344;2022-10-31T15:20:26;16.60;99.90
46364;DHT22;32071;49.036;9.344;2022-10-31T15:22:54;16.50;99.90
46364;DHT22;32071;49.036;9.344;2022-10-31T15:25:23;16.40;99.90
46364;DHT22;32071;49.036;9.344;2022-10-31T15:27:50;16.40;99.90
46364;DHT22;32071;49.036;9.344;2022-10-31T15:32:44;16.30;99.90
46364;DHT22;32071;49.036;9.344;2022-10-31T15:35:10;16.20;99.90
46364;DHT22;32071;49.036;9.344;2022-10-31T15:37:43;16.20;99.90
46364;DHT22;32071;49.036;9.344;2022-10-31T15:40:15;16.20;99.90
46364;DHT22;32071;49.036;9.344;2022-10-31T15:42:41;16.10;99.90
46364;DHT22;32071;49.036;9.344;2022-10-31T15:47:45;15.90;99.90
46364;DHT22;32071;49.036;9.344;2022-10-31T15:50:22;15.80;99.90
46364;DHT22;32071;49.036;9.344;2022-10-31T15:52:49;15.70;99.90
46364;DHT22;32071;49.036;9.344;2022-10-31T15:55:19;15.50;99.90
46364;DHT22;32071;49.036;9.344;2022-10-31T15:57:55;15.40;99.90
46364;DHT22;32071;49.036;9.344;2022-10-31T16:00:33;15.30;99.90
46364;DHT22;32071;49.036;9.344;2022-10-31T16:06:05;15.00;99.90
46364;DHT22;32071;49.036;9.344;2022-10-31T16:11:02;14.60;99.90
46364;DHT22;32071;49.036;9.344;2022-10-31T16:14:04;14.50;99.90
46364;DHT22;32071;49.036;9.344;2022-10-31T16:16:32;14.30;99.90
46364;DHT22;32071;49.036;9.344;2022-10-31T16:18:59;14.30;99.90
46364;DHT22;32071;49.036;9.344;2022-10-31T16:21:30;14.20;99.90
46364;DHT22;32071;49.036;9.344;2022-10-31T16:24:00;14.20;99.90
46364;DHT22;32071;49.036;9.344;2022-10-31T16:26:26;14.10;99.90
46364;DHT22;32071;49.036;9.344;2022-10-31T16:28:54;14.00;99.90
46364;DHT22;32071;49.036;9.344;2022-10-31T16:31:29;14.00;99.90
46364;DHT22;32071;49.036;9.344;2022-10-31T16:34:23;13.90;99.90
46364;DHT22;32071;49.036;9.344;2022-10-31T16:36:48;13.70;99.90
46364;DHT22;32071;49.036;9.344;2022-10-31T16:39:14;13.70;99.90
46364;DHT22;32071;49.036;9.344;2022-10-31T16:41:44;13.60;99.90
46364;DHT22;32071;49.036;9.344;2022-10-31T16:44:24;13.60;99.90
46364;DHT22;32071;49.036;9.344;2022-10-31T16:47:16;13.60;99.90
46364;DHT22;32071;49.036;9.344;2022-10-31T16:49:47;13.60;99.90
46364;DHT22;32071;49.036;9.344;2022-10-31T16:52:14;13.60;99.90
46364;DHT22;32071;49.036;9.344;2022-10-31T16:54:39;13.50;99.90
46364;DHT22;32071;49.036;9.344;2022-10-31T16:57:05;13.50;99.90
46364;DHT22;32071;49.036;9.344;2022-10-31T16:59:32;13.50;99.90
46364;DHT22;32071;49.036;9.344;2022-10-31T17:02:01;13.40;99.90
46364;DHT22;32071;49.036;9.344;2022-10-31T17:04:28;13.40;99.90
46364;DHT22;32071;49.036;9.344;2022-10-31T17:06:54;13.40;99.90
46364;DHT22;32071;49.036;9.344;2022-10-31T17:09:19;13.30;99.90
46364;DHT22;32071;49.036;9.344;2022-10-31T17:11:47;13.30;99.90
46364;DHT22;32071;49.036;9.344;2022-10-31T17:14:16;13.30;99.90
46364;DHT22;32071;49.036;9.344;2022-10-31T17:16:42;13.30;99.90
46364;DHT22;32071;49.036;9.344;2022-10-31T17:19:11;13.20;99.90
46364;DHT22;32071;49.036;9.344;2022-10-31T17:21:37;13.20;99.90
46364;DHT22;32071;49.036;9.344;2022-10-31T17:24:03;13.10;99.90
46364;DHT22;32071;49.036;9.344;2022-10-31T17:26:28;13.10;99.90
46364;DHT22;32071;49.036;9.344;2022-10-31T17:28:54;13.00;99.90
46364;DHT22;32071;49.036;9.344;2022-10-31T17:31:22;12.90;99.90
46364;DHT22;32071;49.036;9.344;2022-10-31T17:33:48;12.90;99.90
46364;DHT22;32071;49.036;9.344;2022-10-31T17:36:14;12.90;99.90
46364;DHT22;32071;49.036;9.344;2022-10-31T17:38:39;12.80;99.90
46364;DHT22;32071;49.036;9.344;2022-10-31T17:41:06;12.70;99.90
46364;DHT22;32071;49.036;9.344;2022-10-31T17:43:32;12.70;99.90
46364;DHT22;32071;49.036;9.344;2022-10-31T17:46:00;12.60;99.90
46364;DHT22;32071;49.036;9.344;2022-10-31T17:48:27;12.60;99.90
46364;DHT22;32071;49.036;9.344;2022-10-31T17:50:53;12.50;99.90
46364;DHT22;32071;49.036;9.344;2022-10-31T17:53:18;12.50;99.90
46364;DHT22;32071;49.036;9.344;2022-10-31T17:55:44;12.50;99.90
46364;DHT22;32071;49.036;9.344;2022-10-31T17:58:10;12.40;99.90
46364;DHT22;32071;49.036;9.344;2022-10-31T18:00:39;12.40;99.90
46364;DHT22;32071;49.036;9.344;2022-10-31T18:03:07;12.30;99.90
46364;DHT22;32071;49.036;9.344;2022-10-31T18:05:33;12.20;99.90